Time;durP1;ratioP1;P1;durP2;ratioP2;P2;SDS_P1;SDS_P2;PMS_P1;PMS_P2;Temp;Humidity;BMP_temperature;BMP_pressure;BME280_temperature;BME280_humidity;BME280_pressure;Samples;Min_cycle;Max_cycle;Signal;HPM_P1;HPM_P2
2021/03/10 00:01:01;;;;;;;11.23;8.23;;;4.20;84.50;;;;;;5017089;28;20227;-67
2021/03/10 00:03:26;;;;;;;11.00;9.50;;;4.20;84.40;;;;;;5017208;28;20182;-67
2021/03/10 00:05:52;;;;;;;12.60;9.90;;;4.20;84.10;;;;;;5017034;28;20829;-67
2021/03/10 00:08:18;;;;;;;13.30;9.43;;;4.20;83.60;;;;;;5016605;28;20214;-67
2021/03/10 00:10:45;;;;;;;11.60;9.47;;;4.20;83.70;;;;;;5016450;28;20672;-67
2021/03/10 00:13:10;;;;;;;12.45;8.00;;;4.30;84.40;;;;;;5016488;28;20183;-67
2021/03/10 00:15:36;;;;;;;19.07;9.57;;;4.30;84.90;;;;;;5017021;28;20171;-67
2021/03/10 00:18:02;;;;;;;11.90;9.03;;;4.30;84.60;;;;;;5016739;28;20196;-67
2021/03/10 00:20:28;;;;;;;14.37;7.47;;;4.30;84.50;;;;;;5016511;28;20183;-67
2021/03/10 00:22:53;;;;;;;13.40;8.50;;;4.20;84.20;;;;;;5016527;28;20412;-66
2021/03/10 00:25:19;;;;;;;10.87;9.20;;;4.10;84.80;;;;;;5016701;28;20642;-66
2021/03/10 00:27:45;;;;;;;14.00;8.83;;;4.10;85.40;;;;;;5016443;28;20226;-67
2021/03/10 00:30:12;;;;;;;14.30;9.20;;;4.10;86.10;;;;;;5016339;28;20172;-66
2021/03/10 00:32:38;;;;;;;12.70;7.35;;;4.10;86.30;;;;;;5016220;28;20497;-66
2021/03/10 00:35:05;;;;;;;13.07;8.73;;;4.00;85.60;;;;;;5016509;28;20590;-67
2021/03/10 00:37:31;;;;;;;9.90;8.00;;;4.00;85.40;;;;;;5016082;28;20542;-67
2021/03/10 00:39:57;;;;;;;14.07;8.60;;;4.00;85.50;;;;;;5016170;28;20170;-67
2021/03/10 00:42:23;;;;;;;13.20;8.87;;;3.90;86.00;;;;;;5016186;28;20669;-67
2021/03/10 00:44:48;;;;;;;12.13;9.63;;;3.90;87.10;;;;;;5016758;28;20620;-67
2021/03/10 00:47:14;;;;;;;11.87;8.00;;;3.80;88.00;;;;;;5015932;28;20245;-67
2021/03/10 00:49:41;;;;;;;10.90;7.93;;;3.90;88.30;;;;;;5016085;28;20182;-66
2021/03/10 00:52:07;;;;;;;9.40;8.13;;;3.90;87.90;;;;;;5016069;28;20969;-67
2021/03/10 00:54:34;;;;;;;15.20;7.95;;;3.90;88.10;;;;;;5015992;28;20661;-67
2021/03/10 00:56:59;;;;;;;13.10;8.25;;;3.90;88.20;;;;;;5015952;28;20183;-67
2021/03/10 00:59:25;;;;;;;12.10;8.67;;;3.80;88.00;;;;;;5015762;28;20187;-67
2021/03/10 01:01:51;;;;;;;12.20;8.20;;;3.90;87.80;;;;;;5016014;28;20610;-67
2021/03/10 01:04:17;;;;;;;10.68;8.23;;;4.00;88.00;;;;;;5015504;28;20627;-66
2021/03/10 01:06:42;;;;;;;14.43;9.43;;;4.00;88.00;;;;;;5015679;28;20198;-66
2021/03/10 01:09:09;;;;;;;15.10;10.27;;;4.10;88.60;;;;;;5015169;28;20211;-67
2021/03/10 01:11:35;;;;;;;10.48;8.65;;;4.10;88.80;;;;;;5014322;28;20210;-67
2021/03/10 01:14:02;;;;;;;12.65;7.97;;;4.10;88.60;;;;;;5015541;28;20176;-67
2021/03/10 01:16:28;;;;;;;10.68;9.55;;;4.00;88.10;;;;;;5015632;28;20507;-67
2021/03/10 01:18:55;;;;;;;12.85;9.93;;;4.00;88.20;;;;;;5015368;28;20202;-66
2021/03/10 01:21:21;;;;;;;10.18;6.88;;;4.10;88.50;;;;;;5015842;28;20174;-66
2021/03/10 01:23:47;;;;;;;13.00;9.30;;;4.20;88.90;;;;;;5015252;28;20640;-66
2021/03/10 01:26:12;;;;;;;14.90;8.47;;;4.20;88.60;;;;;;5015571;28;20189;-66
2021/03/10 01:28:39;;;;;;;15.70;9.43;;;4.20;87.40;;;;;;5015365;28;20192;-66
2021/03/10 01:31:04;;;;;;;15.43;9.88;;;4.20;86.90;;;;;;5015174;28;20201;-67
2021/03/10 01:33:30;;;;;;;14.30;10.07;;;4.10;87.40;;;;;;5014985;28;20178;-67
2021/03/10 01:35:55;;;;;;;15.60;9.40;;;4.00;87.60;;;;;;5015159;28;20245;-66
2021/03/10 01:38:21;;;;;;;18.37;10.90;;;4.10;88.10;;;;;;5015027;28;20668;-67
2021/03/10 01:40:47;;;;;;;20.70;11.47;;;4.20;88.00;;;;;;5015200;28;20176;-66
2021/03/10 01:43:12;;;;;;;19.60;12.70;;;4.20;88.10;;;;;;5015064;28;20204;-67
2021/03/10 01:45:38;;;;;;;16.60;9.33;;;4.20;88.30;;;;;;5015136;28;20178;-66
2021/03/10 01:48:07;;;;;;;18.40;9.30;;;4.30;88.00;;;;;;5015081;28;20194;-66
2021/03/10 01:50:34;;;;;;;16.38;9.50;;;4.40;87.60;;;;;;5014844;28;20195;-67
2021/03/10 01:53:00;;;;;;;10.82;8.73;;;4.30;87.80;;;;;;5014786;28;20697;-67
2021/03/10 01:55:26;;;;;;;13.35;8.88;;;4.40;87.70;;;;;;5014876;28;20221;-66
2021/03/10 01:57:52;;;;;;;12.65;9.10;;;4.40;87.60;;;;;;5013492;28;20279;-66
2021/03/10 02:00:19;;;;;;;10.73;9.03;;;4.30;88.10;;;;;;5014720;28;20645;-67
2021/03/10 02:02:45;;;;;;;15.40;8.93;;;4.10;88.80;;;;;;5014652;28;20543;-67
2021/03/10 02:05:14;;;;;;;21.50;12.37;;;4.10;88.80;;;;;;5015039;28;20182;-67
2021/03/10 02:07:52;;;;;;;13.68;9.38;;;4.10;89.10;;;;;;5014390;28;20449;-67
2021/03/10 02:10:25;;;;;;;10.43;8.50;;;4.10;89.00;;;;;;5014523;28;20161;-67
2021/03/10 02:13:12;;;;;;;14.90;8.90;;;3.90;89.60;;;;;;5014495;28;20170;-67
2021/03/10 02:15:56;;;;;;;14.63;11.25;;;3.80;90.20;;;;;;5014659;28;20659;-67
2021/03/10 02:18:32;;;;;;;16.25;10.70;;;3.90;90.30;;;;;;5014458;28;20251;-67
2021/03/10 02:20:59;;;;;;;17.40;10.93;;;4.00;90.10;;;;;;5013912;28;20171;-66
2021/03/10 02:23:59;;;;;;;18.60;10.30;;;4.10;89.50;;;;;;5014060;28;20177;-66
2021/03/10 02:26:39;;;;;;;15.13;9.77;;;4.20;88.40;;;;;;5014293;28;20172;-66
2021/03/10 02:29:08;;;;;;;17.75;9.57;;;4.30;88.00;;;;;;5014258;28;20196;-66
2021/03/10 02:31:38;;;;;;;19.13;11.30;;;4.30;87.90;;;;;;5014302;28;20656;-66
2021/03/10 02:34:06;;;;;;;12.23;9.50;;;4.30;87.90;;;;;;5013953;28;20172;-67
2021/03/10 02:36:33;;;;;;;18.33;11.85;;;4.10;87.90;;;;;;5014037;28;20181;-66
2021/03/10 02:39:01;;;;;;;14.77;9.73;;;4.10;88.20;;;;;;5013994;28;20206;-66
2021/03/10 02:41:29;;;;;;;10.93;8.98;;;4.20;89.30;;;;;;5014189;28;20177;-67
2021/03/10 02:43:56;;;;;;;12.10;9.80;;;4.30;88.80;;;;;;5014084;28;20171;-66
2021/03/10 02:46:22;;;;;;;16.50;11.45;;;4.30;88.40;;;;;;5014118;28;20183;-67
2021/03/10 02:48:49;;;;;;;13.57;10.18;;;4.30;88.30;;;;;;5013810;28;20207;-67
2021/03/10 02:51:16;;;;;;;21.25;10.35;;;4.30;88.30;;;;;;5013796;28;20205;-67
2021/03/10 02:53:42;;;;;;;13.20;9.95;;;4.20;88.60;;;;;;5013836;28;20170;-66
2021/03/10 02:56:11;;;;;;;14.75;9.52;;;4.20;88.80;;;;;;5013872;28;20690;-66
2021/03/10 02:58:39;;;;;;;15.45;9.73;;;4.20;88.80;;;;;;5013833;28;20545;-67
2021/03/10 03:01:06;;;;;;;11.25;8.52;;;4.20;88.90;;;;;;5013681;28;20522;-66
2021/03/10 03:03:31;;;;;;;14.88;9.60;;;4.30;88.90;;;;;;5013778;28;20178;-67
2021/03/10 03:05:57;;;;;;;16.07;9.53;;;4.30;88.80;;;;;;5013726;28;20225;-66
2021/03/10 03:08:24;;;;;;;8.83;8.03;;;4.30;88.30;;;;;;5013520;28;20253;-67
2021/03/10 03:10:50;;;;;;;14.60;8.93;;;4.30;88.30;;;;;;5012263;28;20207;-67
2021/03/10 03:13:17;;;;;;;19.47;10.43;;;4.30;88.50;;;;;;5013500;28;20221;-66
2021/03/10 03:15:45;;;;;;;12.70;8.95;;;4.40;88.30;;;;;;5013720;28;20164;-66
2021/03/10 03:18:11;;;;;;;13.48;8.25;;;4.30;88.50;;;;;;5013613;28;20184;-66
2021/03/10 03:20:37;;;;;;;14.60;9.25;;;4.20;89.10;;;;;;5013840;28;20317;-66
2021/03/10 03:23:05;;;;;;;13.53;8.77;;;4.30;89.60;;;;;;5013365;28;20262;-66
2021/03/10 03:25:39;;;;;;;13.23;8.40;;;4.30;89.80;;;;;;5013606;28;20417;-66
2021/03/10 03:28:06;;;;;;;12.68;8.57;;;4.30;89.40;;;;;;5013600;28;20202;-66
2021/03/10 03:30:35;;;;;;;16.40;8.60;;;4.20;89.80;;;;;;5013378;28;20198;-66
2021/03/10 03:33:05;;;;;;;12.77;8.45;;;4.20;90.20;;;;;;5014797;28;20178;-67
2021/03/10 03:35:31;;;;;;;11.02;9.07;;;4.10;90.30;;;;;;5017544;28;20166;-67
2021/03/10 03:37:58;;;;;;;13.13;8.48;;;4.10;90.40;;;;;;5017386;28;20304;-66
2021/03/10 03:40:24;;;;;;;11.38;8.10;;;4.00;90.40;;;;;;5017336;28;20176;-66
2021/03/10 03:42:51;;;;;;;16.70;11.00;;;4.00;90.20;;;;;;5017267;28;20186;-67
2021/03/10 03:45:21;;;;;;;15.20;9.65;;;3.90;90.20;;;;;;5017651;28;20233;-67
2021/03/10 03:47:54;;;;;;;12.68;9.13;;;3.70;90.40;;;;;;5017370;28;20191;-66
2021/03/10 03:50:21;;;;;;;10.45;8.93;;;3.40;91.00;;;;;;5017054;28;20181;-66
2021/03/10 03:52:47;;;;;;;12.30;8.80;;;3.30;91.50;;;;;;5017062;28;20183;-66
2021/03/10 03:55:15;;;;;;;16.97;9.40;;;3.20;91.60;;;;;;5017205;28;20236;-66
2021/03/10 03:57:41;;;;;;;24.05;9.50;;;3.30;91.60;;;;;;5016896;28;20732;-66
2021/03/10 04:00:12;;;;;;;14.10;8.80;;;3.20;91.50;;;;;;5016987;28;20174;-66
2021/03/10 04:02:38;;;;;;;14.57;8.63;;;3.20;91.60;;;;;;5016948;28;20190;-66
2021/03/10 04:05:05;;;;;;;12.30;7.87;;;2.80;92.10;;;;;;5017052;28;20177;-66
2021/03/10 04:07:31;;;;;;;9.85;6.15;;;2.70;92.70;;;;;;5016700;28;20434;-66
2021/03/10 04:09:57;;;;;;;12.13;9.27;;;2.70;92.80;;;;;;5015496;28;20188;-67
2021/03/10 04:12:22;;;;;;;12.67;7.00;;;2.80;93.00;;;;;;5016496;28;20460;-67
2021/03/10 04:14:48;;;;;;;11.40;7.80;;;2.70;93.10;;;;;;5016905;28;20255;-67
2021/03/10 04:17:14;;;;;;;9.80;6.90;;;2.60;93.00;;;;;;5016764;28;20219;-66
2021/03/10 04:19:41;;;;;;;16.55;9.30;;;2.30;93.70;;;;;;5016685;28;20204;-67
2021/03/10 04:22:06;;;;;;;11.23;8.82;;;2.20;94.10;;;;;;5015386;28;20676;-67
2021/03/10 04:24:32;;;;;;;11.60;7.17;;;2.30;94.30;;;;;;5016608;28;20172;-67
2021/03/10 04:26:58;;;;;;;12.37;9.00;;;2.30;94.20;;;;;;5015261;28;20270;-66
2021/03/10 04:29:23;;;;;;;9.83;7.33;;;2.30;94.30;;;;;;5016365;28;20199;-66
2021/03/10 04:31:49;;;;;;;12.50;8.40;;;2.20;94.40;;;;;;5016442;28;20204;-67
2021/03/10 04:34:15;;;;;;;13.30;7.07;;;2.20;94.50;;;;;;5016298;28;20194;-66
2021/03/10 04:36:41;;;;;;;16.97;8.63;;;2.20;94.60;;;;;;5016279;28;20238;-67
2021/03/10 04:39:06;;;;;;;11.00;7.20;;;2.20;94.60;;;;;;5014910;28;20238;-66
2021/03/10 04:41:32;;;;;;;11.97;7.83;;;2.10;94.70;;;;;;5016211;28;20217;-66
2021/03/10 04:43:58;;;;;;;14.67;7.67;;;2.10;94.70;;;;;;5015516;28;20204;-66
2021/03/10 04:46:24;;;;;;;11.27;8.10;;;2.00;94.90;;;;;;5016098;28;20261;-66
2021/03/10 04:48:49;;;;;;;11.30;7.30;;;2.00;95.20;;;;;;5016084;28;20330;-67
2021/03/10 04:51:15;;;;;;;10.50;8.70;;;2.00;95.20;;;;;;5016037;28;20210;-66
2021/03/10 04:53:41;;;;;;;8.00;6.70;;;2.00;95.00;;;;;;5015960;28;20219;-67
2021/03/10 04:56:06;;;;;;;13.53;10.90;;;1.90;95.00;;;;;;5015902;28;20415;-67
2021/03/10 04:58:34;;;;;;;9.97;7.97;;;1.90;95.10;;;;;;5015814;28;20190;-67
2021/03/10 05:00:59;;;;;;;10.85;8.55;;;1.80;95.30;;;;;;5014788;28;20184;-66
2021/03/10 05:03:25;;;;;;;20.83;9.87;;;1.60;95.60;;;;;;5015594;28;20183;-67
2021/03/10 05:05:51;;;;;;;13.33;7.90;;;1.50;96.00;;;;;;5015868;28;20191;-67
2021/03/10 05:08:16;;;;;;;10.20;8.03;;;1.50;96.00;;;;;;5015609;28;20591;-67
2021/03/10 05:10:42;;;;;;;16.73;9.37;;;1.60;95.90;;;;;;5015587;28;20280;-67
2021/03/10 05:13:08;;;;;;;13.10;9.10;;;1.60;95.90;;;;;;5015349;28;20210;-67
2021/03/10 05:15:33;;;;;;;17.07;10.27;;;1.70;95.80;;;;;;5015641;28;20263;-67
2021/03/10 05:17:59;;;;;;;13.73;7.47;;;1.60;95.80;;;;;;5015705;28;20282;-67
2021/03/10 05:20:24;;;;;;;11.53;8.93;;;1.50;96.00;;;;;;5015513;28;20171;-67
2021/03/10 05:22:50;;;;;;;14.60;9.53;;;1.50;96.00;;;;;;5015067;28;20172;-66
2021/03/10 05:25:16;;;;;;;10.60;7.50;;;1.50;96.00;;;;;;5013916;28;20254;-67
2021/03/10 05:27:42;;;;;;;18.10;8.20;;;1.50;96.00;;;;;;5013948;28;20241;-67
2021/03/10 05:30:09;;;;;;;14.90;9.10;;;1.50;96.10;;;;;;5015412;28;20402;-67
2021/03/10 05:32:36;;;;;;;20.08;11.48;;;1.50;96.20;;;;;;5015008;28;20560;-66
2021/03/10 05:35:02;;;;;;;19.23;8.77;;;1.40;96.20;;;;;;5015112;28;20309;-67
2021/03/10 05:37:28;;;;;;;11.20;8.95;;;1.40;96.20;;;;;;5015156;28;20317;-67
2021/03/10 05:39:54;;;;;;;14.03;9.27;;;1.40;96.30;;;;;;5015063;28;20246;-67
2021/03/10 05:42:19;;;;;;;17.60;8.53;;;1.40;96.30;;;;;;5014929;28;20172;-67
2021/03/10 05:44:52;;;;;;;15.77;9.23;;;1.50;96.20;;;;;;5015026;28;20203;-67
2021/03/10 05:47:18;;;;;;;14.80;9.85;;;1.60;96.00;;;;;;5015081;28;20226;-67
2021/03/10 05:49:45;;;;;;;13.57;7.38;;;1.60;95.80;;;;;;5014897;28;20180;-67
2021/03/10 05:52:12;;;;;;;12.65;9.68;;;1.60;95.80;;;;;;5014737;28;20277;-67
2021/03/10 05:54:41;;;;;;;16.73;9.15;;;1.60;96.00;;;;;;5014794;28;20168;-67
2021/03/10 05:57:07;;;;;;;10.85;9.40;;;1.60;95.90;;;;;;5013853;28;20230;-67
2021/03/10 05:59:33;;;;;;;11.02;9.43;;;1.60;95.70;;;;;;5014616;28;20200;-67
2021/03/10 06:01:58;;;;;;;15.80;8.97;;;1.70;95.70;;;;;;5014871;28;20168;-67
2021/03/10 06:04:24;;;;;;;11.93;9.10;;;1.70;95.70;;;;;;5012319;28;20263;-66
2021/03/10 06:06:51;;;;;;;19.35;10.43;;;1.80;95.80;;;;;;5014567;28;20699;-66
2021/03/10 06:09:21;;;;;;;14.60;9.07;;;1.80;95.80;;;;;;5014178;28;20215;-67
2021/03/10 06:12:00;;;;;;;16.33;9.35;;;1.90;95.80;;;;;;5014521;28;20206;-67
2021/03/10 06:14:26;;;;;;;14.52;9.30;;;2.00;95.70;;;;;;5014119;28;20168;-67
2021/03/10 06:17:09;;;;;;;17.48;8.43;;;2.20;95.30;;;;;;5091572;27;20928;-66
2021/03/10 06:19:46;;;;;;;11.77;7.40;;;2.30;95.00;;;;;;5090445;28;20238;-66
2021/03/10 06:22:12;;;;;;;14.18;8.20;;;2.50;94.60;;;;;;5090647;28;20219;-66
2021/03/10 06:24:38;;;;;;;16.63;9.93;;;2.60;94.40;;;;;;5090882;28;20261;-66
2021/03/10 06:27:04;;;;;;;14.33;8.37;;;2.70;93.90;;;;;;5090726;28;20173;-66
2021/03/10 06:29:31;;;;;;;12.25;7.55;;;2.90;93.30;;;;;;5090600;28;20189;-66
2021/03/10 06:32:09;;;;;;;14.63;8.05;;;3.00;93.20;;;;;;5090621;28;20562;-66
2021/03/10 06:35:01;;;;;;;13.45;8.10;;;3.20;93.00;;;;;;5090678;28;20190;-66
2021/03/10 06:37:29;;;;;;;14.13;10.18;;;3.30;92.60;;;;;;5090308;28;20520;-66
2021/03/10 06:40:14;;;;;;;17.27;9.02;;;3.40;92.50;;;;;;5087612;28;20858;-66
2021/03/10 06:42:54;;;;;;;20.25;8.77;;;3.50;92.40;;;;;;5087209;28;20657;-66
2021/03/10 06:45:29;;;;;;;12.75;8.10;;;3.70;92.10;;;;;;5087079;28;20183;-66
2021/03/10 06:47:55;;;;;;;12.50;9.15;;;3.80;91.50;;;;;;5089349;28;20194;-66
2021/03/10 06:50:21;;;;;;;14.00;9.87;;;3.90;91.00;;;;;;5089987;28;20220;-66
2021/03/10 06:52:50;;;;;;;13.27;8.47;;;4.00;90.40;;;;;;5090262;28;20518;-66
2021/03/10 06:55:17;;;;;;;12.82;9.27;;;4.20;90.10;;;;;;5089471;28;20196;-66
2021/03/10 06:57:46;;;;;;;15.18;9.40;;;4.30;89.70;;;;;;5090121;28;20191;-66
2021/03/10 07:00:22;;;;;;;14.77;10.18;;;4.40;89.00;;;;;;5089737;28;20197;-67
2021/03/10 07:02:48;;;;;;;19.38;12.27;;;4.60;88.00;;;;;;5088460;28;20180;-67
2021/03/10 07:05:15;;;;;;;23.42;12.63;;;4.90;87.50;;;;;;5089855;28;20229;-67
2021/03/10 07:07:42;;;;;;;12.63;9.30;;;5.10;86.70;;;;;;5088361;28;20204;-67
2021/03/10 07:10:08;;;;;;;16.88;11.10;;;5.40;85.70;;;;;;5088867;28;20248;-67
2021/03/10 07:12:34;;;;;;;16.45;9.55;;;5.60;84.20;;;;;;5088989;28;20177;-67
2021/03/10 07:15:04;;;;;;;14.53;9.57;;;6.10;82.70;;;;;;5089540;28;20208;-67
2021/03/10 07:17:31;;;;;;;12.18;8.82;;;6.60;80.50;;;;;;5089877;28;20173;-67
2021/03/10 07:19:58;;;;;;;13.02;9.55;;;7.20;78.10;;;;;;5089693;28;20239;-66
2021/03/10 07:22:38;;;;;;;15.57;10.45;;;7.80;74.60;;;;;;5088973;28;20176;-67
2021/03/10 07:25:09;;;;;;;15.48;9.75;;;8.30;71.90;;;;;;5088561;28;20700;-66
2021/03/10 07:28:02;;;;;;;13.57;9.93;;;8.60;69.70;;;;;;5079996;28;20284;-67
2021/03/10 07:30:48;;;;;;;14.95;9.10;;;8.90;67.60;;;;;;5075172;28;20190;-65
2021/03/10 07:33:16;;;;;;;14.00;9.98;;;9.40;66.00;;;;;;5075743;28;20167;-66
2021/03/10 07:35:55;;;;;;;12.75;9.55;;;9.70;63.70;;;;;;5076472;28;20294;-66
2021/03/10 07:38:24;;;;;;;14.75;10.02;;;10.30;60.00;;;;;;5075259;28;20196;-66
2021/03/10 07:40:58;;;;;;;14.38;10.35;;;10.70;59.40;;;;;;5075528;28;20174;-67
2021/03/10 07:43:46;;;;;;;19.33;10.70;;;11.30;57.30;;;;;;5075585;28;20193;-66
2021/03/10 07:46:24;;;;;;;14.73;10.50;;;11.70;54.70;;;;;;5075669;28;20253;-68
2021/03/10 07:48:50;;;;;;;17.83;11.52;;;12.10;53.90;;;;;;5075626;28;20193;-67
2021/03/10 07:51:35;;;;;;;14.27;11.20;;;12.40;53.00;;;;;;5075694;28;20503;-67
2021/03/10 07:54:03;;;;;;;18.08;13.43;;;13.20;51.70;;;;;;5075509;28;20276;-68
2021/03/10 07:56:31;;;;;;;16.42;11.30;;;13.70;49.80;;;;;;5075795;28;20212;-69
2021/03/10 07:59:11;;;;;;;14.40;11.80;;;13.90;48.90;;;;;;5075061;28;20215;-69
2021/03/10 08:01:37;;;;;;;13.60;10.80;;;13.70;48.40;;;;;;5075494;28;20533;-69
2021/03/10 08:04:17;;;;;;;14.00;11.10;;;13.40;48.70;;;;;;5075047;28;20305;-69
2021/03/10 08:06:47;;;;;;;18.40;10.73;;;13.50;48.20;;;;;;5075035;28;20435;-69
2021/03/10 08:09:14;;;;;;;14.47;11.40;;;13.80;47.90;;;;;;5074891;28;20948;-69
2021/03/10 08:11:43;;;;;;;14.47;10.90;;;14.10;47.20;;;;;;5075267;28;20462;-68
2021/03/10 08:14:10;;;;;;;19.93;12.43;;;14.60;46.90;;;;;;5074470;28;20434;-70
2021/03/10 08:16:50;;;;;;;20.37;12.27;;;15.00;46.10;;;;;;5074289;28;20541;-69
2021/03/10 08:19:20;;;;;;;20.47;12.80;;;15.30;44.60;;;;;;5074284;28;20416;-69
2021/03/10 08:21:49;;;;;;;18.03;12.20;;;15.20;44.80;;;;;;5074901;28;20400;-68
2021/03/10 08:24:15;;;;;;;17.13;12.33;;;15.30;44.50;;;;;;5074466;28;20431;-67
2021/03/10 08:26:41;;;;;;;20.00;13.20;;;15.50;44.20;;;;;;5075245;28;20411;-68
2021/03/10 08:29:07;;;;;;;16.80;11.83;;;15.70;43.50;;;;;;5074392;28;20427;-68
2021/03/10 08:31:48;;;;;;;17.20;11.60;;;15.90;42.80;;;;;;5074140;28;20815;-69
2021/03/10 08:34:15;;;;;;;20.20;13.90;;;16.30;42.80;;;;;;5074540;28;20170;-68
2021/03/10 08:36:41;;;;;;;16.77;11.17;;;16.40;41.80;;;;;;5074509;28;20443;-67
2021/03/10 08:39:15;;;;;;;17.17;13.00;;;16.50;41.50;;;;;;5073922;28;20430;-68
2021/03/10 08:41:49;;;;;;;16.17;13.60;;;17.00;41.10;;;;;;5073487;28;20407;-69
2021/03/10 08:44:19;;;;;;;21.30;14.77;;;17.10;40.80;;;;;;5073806;28;20499;-68
2021/03/10 08:46:46;;;;;;;20.57;14.90;;;16.60;40.20;;;;;;5074454;28;20407;-69
2021/03/10 08:49:20;;;;;;;16.30;12.80;;;16.50;39.50;;;;;;5074301;28;20415;-69
2021/03/10 08:51:46;;;;;;;20.80;16.60;;;16.60;39.60;;;;;;5074348;28;20406;-69
2021/03/10 08:54:12;;;;;;;20.87;15.60;;;16.80;38.70;;;;;;5074313;28;20408;-68
2021/03/10 08:56:51;;;;;;;21.20;14.30;;;17.00;38.10;;;;;;5074215;28;20511;-68
2021/03/10 08:59:18;;;;;;;19.50;14.37;;;17.40;37.80;;;;;;5074153;28;20574;-68
2021/03/10 09:01:51;;;;;;;22.07;16.17;;;17.90;36.50;;;;;;5074810;28;20406;-69
2021/03/10 09:04:26;;;;;;;20.00;14.57;;;18.20;35.80;;;;;;5072748;28;20411;-68
2021/03/10 09:06:55;;;;;;;20.90;15.73;;;18.10;36.20;;;;;;5074180;28;20490;-68
2021/03/10 09:09:21;;;;;;;18.57;12.37;;;17.80;35.10;;;;;;5074350;28;20434;-68
2021/03/10 09:11:48;;;;;;;23.07;14.80;;;17.80;36.00;;;;;;5073652;28;20408;-68
2021/03/10 09:14:14;;;;;;;18.87;13.10;;;17.70;35.00;;;;;;5073707;28;20173;-68
2021/03/10 09:16:59;;;;;;;24.27;13.57;;;17.30;35.60;;;;;;5071694;28;20508;-68
2021/03/10 09:19:37;;;;;;;20.60;15.20;;;16.20;37.00;;;;;;5073642;28;20972;-68
2021/03/10 09:22:10;;;;;;;18.33;14.10;;;16.20;37.70;;;;;;5073519;28;20410;-68
2021/03/10 09:24:52;;;;;;;21.70;13.20;;;15.20;38.30;;;;;;5073919;28;20400;-69
2021/03/10 09:27:21;;;;;;;15.13;12.40;;;15.50;38.70;;;;;;5073744;28;20406;-68
2021/03/10 09:29:47;;;;;;;17.73;13.50;;;15.60;38.90;;;;;;5073800;28;20532;-68
2021/03/10 09:32:13;;;;;;;21.23;12.00;;;16.30;38.80;;;;;;5073634;28;20411;-68
2021/03/10 09:34:39;;;;;;;17.57;14.10;;;16.80;37.10;;;;;;5073480;28;20411;-69
2021/03/10 09:37:09;;;;;;;24.03;11.70;;;17.80;36.40;;;;;;5073595;28;20400;-68
2021/03/10 09:39:45;;;;;;;14.30;11.67;;;18.40;35.00;;;;;;5073544;28;20189;-68
2021/03/10 09:42:11;;;;;;;13.40;9.73;;;18.90;34.90;;;;;;5073513;28;20407;-68
2021/03/10 09:44:48;;;;;;;14.23;10.87;;;19.20;33.50;;;;;;5073758;28;20414;-68
2021/03/10 09:47:16;;;;;;;14.80;11.20;;;19.70;32.70;;;;;;5073764;28;20255;-69
2021/03/10 09:50:00;;;;;;;16.63;13.00;;;20.80;31.90;;;;;;5073230;28;20402;-68
2021/03/10 09:52:39;;;;;;;13.20;11.17;;;20.60;30.80;;;;;;5073489;28;20467;-69
2021/03/10 09:55:08;;;;;;;18.20;12.17;;;19.10;32.50;;;;;;5073568;28;20443;-69
2021/03/10 09:57:34;;;;;;;16.07;11.07;;;17.90;34.50;;;;;;5073264;28;20392;-68
2021/03/10 10:00:00;;;;;;;15.30;11.80;;;16.50;36.50;;;;;;5073375;28;20757;-68
2021/03/10 10:02:28;;;;;;;14.90;11.90;;;15.90;37.10;;;;;;5073185;28;20540;-68
2021/03/10 10:05:03;;;;;;;15.00;11.53;;;16.20;37.40;;;;;;5073358;28;20166;-69
2021/03/10 10:07:30;;;;;;;13.40;10.57;;;16.30;36.30;;;;;;5073296;28;20399;-68
2021/03/10 10:09:57;;;;;;;11.70;10.50;;;15.60;36.40;;;;;;5073221;28;20812;-68
2021/03/10 10:12:23;;;;;;;14.00;8.47;;;15.30;36.80;;;;;;5073021;28;20453;-68
2021/03/10 10:14:49;;;;;;;11.30;9.20;;;15.20;37.70;;;;;;5073391;28;20457;-68
2021/03/10 10:17:16;;;;;;;14.43;9.53;;;15.30;37.70;;;;;;5073394;28;20414;-69
2021/03/10 10:19:42;;;;;;;12.50;9.90;;;16.10;36.40;;;;;;5073267;28;20396;-69
2021/03/10 10:22:08;;;;;;;13.40;9.57;;;16.40;36.20;;;;;;5073006;28;20399;-68
2021/03/10 10:24:34;;;;;;;15.27;10.17;;;16.40;35.60;;;;;;5073316;28;20392;-68
2021/03/10 10:27:00;;;;;;;12.50;8.97;;;16.00;35.50;;;;;;5073120;28;20510;-69
2021/03/10 10:29:26;;;;;;;14.13;9.83;;;15.70;36.50;;;;;;5073047;28;20435;-68
2021/03/10 10:31:52;;;;;;;11.37;8.70;;;15.60;36.30;;;;;;5073171;28;20170;-68
2021/03/10 10:34:17;;;;;;;8.13;7.30;;;16.00;36.30;;;;;;5073060;28;20173;-68
2021/03/10 10:36:43;;;;;;;13.57;8.80;;;16.30;35.50;;;;;;5072840;28;20458;-68
2021/03/10 10:39:09;;;;;;;9.87;8.37;;;16.40;35.50;;;;;;5072911;28;20199;-69
2021/03/10 10:41:35;;;;;;;13.10;8.17;;;16.80;34.70;;;;;;5073224;28;20239;-69
2021/03/10 10:44:00;;;;;;;9.40;8.07;;;16.60;34.90;;;;;;5072745;28;20219;-68
2021/03/10 10:46:26;;;;;;;10.90;8.23;;;16.40;35.60;;;;;;5072975;28;20225;-69
2021/03/10 10:48:52;;;;;;;11.60;8.50;;;16.80;34.80;;;;;;5072904;28;20223;-70
2021/03/10 10:51:19;;;;;;;11.67;8.43;;;17.00;34.80;;;;;;5073040;28;20201;-70
2021/03/10 10:53:45;;;;;;;13.77;9.83;;;17.10;33.60;;;;;;5072572;28;20224;-69
2021/03/10 10:56:11;;;;;;;13.70;9.67;;;17.20;33.80;;;;;;5072658;28;20474;-70
2021/03/10 10:58:37;;;;;;;12.27;8.40;;;16.40;34.40;;;;;;5072826;28;20431;-70
2021/03/10 11:01:03;;;;;;;12.47;9.37;;;16.30;34.70;;;;;;5073047;28;20177;-70
2021/03/10 11:03:28;;;;;;;11.03;9.20;;;16.30;34.60;;;;;;5075968;28;20542;-69
2021/03/10 11:05:54;;;;;;;11.10;7.57;;;15.30;34.30;;;;;;5076603;28;20407;-70
2021/03/10 11:08:20;;;;;;;9.67;7.30;;;14.30;36.30;;;;;;5076655;28;20194;-70
2021/03/10 11:10:46;;;;;;;10.57;7.87;;;14.10;38.30;;;;;;5076361;28;20406;-69
2021/03/10 11:13:12;;;;;;;8.87;6.33;;;13.80;39.00;;;;;;5076407;28;20252;-69
2021/03/10 11:15:37;;;;;;;7.67;6.53;;;13.90;37.90;;;;;;5076292;28;20548;-69
2021/03/10 11:18:03;;;;;;;10.13;6.93;;;13.60;37.00;;;;;;5076418;28;20189;-70
2021/03/10 11:20:29;;;;;;;13.10;7.40;;;13.00;37.50;;;;;;5076267;28;20573;-68
2021/03/10 11:22:55;;;;;;;6.80;5.93;;;12.50;38.20;;;;;;5075979;28;20162;-69
2021/03/10 11:25:20;;;;;;;14.10;6.27;;;11.90;39.70;;;;;;5076109;28;20174;-69
2021/03/10 11:27:46;;;;;;;6.17;4.77;;;10.90;41.00;;;;;;5074644;28;20443;-67
2021/03/10 11:30:12;;;;;;;8.90;5.27;;;10.60;41.90;;;;;;5075939;28;20170;-69
2021/03/10 11:32:38;;;;;;;5.57;4.13;;;10.60;40.70;;;;;;5076007;28;20178;-70
2021/03/10 11:35:06;;;;;;;8.23;4.30;;;10.80;39.30;;;;;;5075894;28;20197;-69
2021/03/10 11:37:32;;;;;;;8.88;4.50;;;11.00;39.90;;;;;;5074981;28;20491;-69
2021/03/10 11:40:08;;;;;;;4.57;3.93;;;11.00;39.70;;;;;;5075914;28;20599;-69
2021/03/10 11:42:38;;;;;;;7.10;3.47;;;11.30;39.80;;;;;;5075316;28;20495;-69
2021/03/10 11:45:06;;;;;;;4.78;3.15;;;11.30;39.40;;;;;;5075864;28;20165;-70
2021/03/10 11:47:32;;;;;;;5.63;3.35;;;11.10;38.10;;;;;;5075704;28;20268;-69
2021/03/10 11:49:58;;;;;;;4.40;3.47;;;10.90;37.30;;;;;;5075770;28;20172;-69
2021/03/10 11:52:25;;;;;;;5.40;3.50;;;10.80;38.20;;;;;;5075409;28;20713;-68
2021/03/10 11:54:50;;;;;;;5.00;3.72;;;10.50;38.40;;;;;;5075658;28;20582;-69
2021/03/10 11:57:16;;;;;;;3.40;3.10;;;10.40;38.90;;;;;;5075543;28;20169;-69
2021/03/10 11:59:44;;;;;;;5.37;3.73;;;10.50;38.90;;;;;;5075714;28;20173;-69
2021/03/10 12:02:09;;;;;;;4.07;3.22;;;10.40;40.20;;;;;;5074117;28;20181;-69
2021/03/10 12:04:38;;;;;;;5.13;3.00;;;10.40;39.00;;;;;;5075584;28;20509;-69
2021/03/10 12:07:04;;;;;;;4.10;3.55;;;10.30;38.70;;;;;;5073814;28;20507;-70
2021/03/10 12:09:32;;;;;;;4.67;3.67;;;10.50;39.20;;;;;;5075352;28;20196;-69
2021/03/10 12:11:58;;;;;;;5.30;3.45;;;10.70;38.90;;;;;;5075159;28;20243;-69
2021/03/10 12:14:24;;;;;;;5.10;4.20;;;11.10;38.80;;;;;;5074851;28;20203;-70
2021/03/10 12:16:50;;;;;;;9.68;5.20;;;11.40;39.10;;;;;;5074720;28;20460;-70
2021/03/10 12:19:16;;;;;;;6.80;4.20;;;11.60;39.30;;;;;;5074448;28;20186;-69
2021/03/10 12:21:42;;;;;;;7.83;4.77;;;12.00;39.00;;;;;;5075120;28;20904;-68
2021/03/10 12:24:09;;;;;;;4.73;4.33;;;12.40;38.90;;;;;;5074681;28;20639;-69
2021/03/10 12:26:35;;;;;;;8.47;5.37;;;12.00;39.70;;;;;;5075139;28;20169;-69
2021/03/10 12:29:01;;;;;;;7.50;5.20;;;12.00;41.20;;;;;;5074897;28;20432;-70
2021/03/10 12:31:27;;;;;;;8.23;6.30;;;12.10;41.50;;;;;;5075136;28;20619;-69
2021/03/10 12:33:53;;;;;;;8.57;5.40;;;12.10;40.80;;;;;;5074684;28;20173;-68
2021/03/10 12:36:18;;;;;;;7.57;5.20;;;12.10;41.00;;;;;;5074785;28;20806;-70
2021/03/10 12:38:44;;;;;;;9.00;5.90;;;12.10;41.20;;;;;;5074740;28;20188;-69
2021/03/10 12:41:09;;;;;;;10.77;6.40;;;12.00;41.10;;;;;;5074795;28;20653;-69
2021/03/10 12:43:35;;;;;;;7.93;5.43;;;12.00;41.20;;;;;;5074573;28;20169;-69
2021/03/10 12:46:02;;;;;;;8.80;6.40;;;12.00;42.40;;;;;;5074784;28;20185;-69